sensor_id;sensor_type;location;lat;lon;timestamp;temperature;humidity
48734;DHT22;34530;52.084;5.146;2022-08-25T00:00:48;29.10;59.60
48734;DHT22;34530;52.084;5.146;2022-08-25T00:03:15;29.10;59.60
48734;DHT22;34530;52.084;5.146;2022-08-25T00:05:41;29.20;59.70
48734;DHT22;34530;52.084;5.146;2022-08-25T00:08:07;29.20;59.70
48734;DHT22;34530;52.084;5.146;2022-08-25T00:10:34;29.20;59.70
48734;DHT22;34530;52.084;5.146;2022-08-25T00:13:01;29.20;59.60
48734;DHT22;34530;52.084;5.146;2022-08-25T00:15:28;29.20;59.50
48734;DHT22;34530;52.084;5.146;2022-08-25T00:17:54;29.20;59.50
48734;DHT22;34530;52.084;5.146;2022-08-25T00:20:19;29.20;59.50
48734;DHT22;34530;52.084;5.146;2022-08-25T00:22:46;29.20;59.40
48734;DHT22;34530;52.084;5.146;2022-08-25T00:25:13;29.20;59.30
48734;DHT22;34530;52.084;5.146;2022-08-25T00:27:38;29.20;59.30
48734;DHT22;34530;52.084;5.146;2022-08-25T00:30:05;29.20;59.30
48734;DHT22;34530;52.084;5.146;2022-08-25T00:32:31;29.20;59.20
48734;DHT22;34530;52.084;5.146;2022-08-25T00:34:57;29.10;59.20
48734;DHT22;34530;52.084;5.146;2022-08-25T00:37:22;29.10;59.20
48734;DHT22;34530;52.084;5.146;2022-08-25T00:39:48;29.10;59.00
48734;DHT22;34530;52.084;5.146;2022-08-25T00:42:14;29.10;59.00
48734;DHT22;34530;52.084;5.146;2022-08-25T00:44:40;29.10;59.10
48734;DHT22;34530;52.084;5.146;2022-08-25T00:47:08;29.10;59.10
48734;DHT22;34530;52.084;5.146;2022-08-25T00:49:50;29.00;59.00
48734;DHT22;34530;52.084;5.146;2022-08-25T00:52:24;29.00;58.90
48734;DHT22;34530;52.084;5.146;2022-08-25T00:54:55;29.00;59.00
48734;DHT22;34530;52.084;5.146;2022-08-25T00:57:25;29.00;59.00
48734;DHT22;34530;52.084;5.146;2022-08-25T00:59:52;29.00;59.00
48734;DHT22;34530;52.084;5.146;2022-08-25T01:02:18;29.00;58.90
48734;DHT22;34530;52.084;5.146;2022-08-25T01:04:44;28.90;58.90
48734;DHT22;34530;52.084;5.146;2022-08-25T01:07:11;28.90;58.90
48734;DHT22;34530;52.084;5.146;2022-08-25T01:09:37;28.90;58.80
48734;DHT22;34530;52.084;5.146;2022-08-25T01:12:04;28.90;58.80
48734;DHT22;34530;52.084;5.146;2022-08-25T01:14:31;28.90;58.80
48734;DHT22;34530;52.084;5.146;2022-08-25T01:16:58;28.90;58.70
48734;DHT22;34530;52.084;5.146;2022-08-25T01:19:26;28.90;58.60
48734;DHT22;34530;52.084;5.146;2022-08-25T01:21:52;28.90;58.60
48734;DHT22;34530;52.084;5.146;2022-08-25T01:24:46;28.90;58.60
48734;DHT22;34530;52.084;5.146;2022-08-25T01:27:15;28.80;58.50
48734;DHT22;34530;52.084;5.146;2022-08-25T01:29:41;28.80;58.60
48734;DHT22;34530;52.084;5.146;2022-08-25T01:32:09;28.80;58.60
48734;DHT22;34530;52.084;5.146;2022-08-25T01:34:38;28.80;58.60
48734;DHT22;34530;52.084;5.146;2022-08-25T01:37:06;28.80;58.50
48734;DHT22;34530;52.084;5.146;2022-08-25T01:39:33;28.80;58.50
48734;DHT22;34530;52.084;5.146;2022-08-25T01:44:40;28.80;58.30
48734;DHT22;34530;52.084;5.146;2022-08-25T01:47:07;28.80;58.90
48734;DHT22;34530;52.084;5.146;2022-08-25T01:49:32;28.80;58.20
48734;DHT22;34530;52.084;5.146;2022-08-25T01:54:36;28.80;58.20
48734;DHT22;34530;52.084;5.146;2022-08-25T01:57:03;28.70;58.30
48734;DHT22;34530;52.084;5.146;2022-08-25T01:59:28;28.70;58.10
48734;DHT22;34530;52.084;5.146;2022-08-25T02:01:54;28.70;58.10
48734;DHT22;34530;52.084;5.146;2022-08-25T02:04:20;28.70;58.00
48734;DHT22;34530;52.084;5.146;2022-08-25T02:06:46;28.70;58.20
48734;DHT22;34530;52.084;5.146;2022-08-25T02:09:14;28.70;58.10
48734;DHT22;34530;52.084;5.146;2022-08-25T02:11:43;28.70;57.90
48734;DHT22;34530;52.084;5.146;2022-08-25T02:14:11;28.70;57.80
48734;DHT22;34530;52.084;5.146;2022-08-25T02:16:38;28.70;57.90
48734;DHT22;34530;52.084;5.146;2022-08-25T02:19:07;28.70;57.60
48734;DHT22;34530;52.084;5.146;2022-08-25T02:21:34;28.70;57.60
48734;DHT22;34530;52.084;5.146;2022-08-25T02:24:01;28.60;57.40
48734;DHT22;34530;52.084;5.146;2022-08-25T02:26:26;28.60;57.10
48734;DHT22;34530;52.084;5.146;2022-08-25T02:28:52;28.60;57.10
48734;DHT22;34530;52.084;5.146;2022-08-25T02:31:21;28.50;57.00
48734;DHT22;34530;52.084;5.146;2022-08-25T02:33:46;28.50;56.60
48734;DHT22;34530;52.084;5.146;2022-08-25T02:36:12;28.50;56.70
48734;DHT22;34530;52.084;5.146;2022-08-25T02:38:39;28.40;56.60
48734;DHT22;34530;52.084;5.146;2022-08-25T02:41:11;28.40;56.60
48734;DHT22;34530;52.084;5.146;2022-08-25T02:43:38;28.40;56.40
48734;DHT22;34530;52.084;5.146;2022-08-25T02:46:04;28.30;56.30
48734;DHT22;34530;52.084;5.146;2022-08-25T02:48:30;28.30;56.20
48734;DHT22;34530;52.084;5.146;2022-08-25T02:50:58;28.30;56.20
48734;DHT22;34530;52.084;5.146;2022-08-25T02:53:26;28.20;55.80
48734;DHT22;34530;52.084;5.146;2022-08-25T02:55:51;28.20;55.70
48734;DHT22;34530;52.084;5.146;2022-08-25T02:58:17;28.20;55.70
48734;DHT22;34530;52.084;5.146;2022-08-25T03:00:44;28.20;55.50
48734;DHT22;34530;52.084;5.146;2022-08-25T03:03:10;28.10;55.40
48734;DHT22;34530;52.084;5.146;2022-08-25T03:05:36;28.10;55.40
48734;DHT22;34530;52.084;5.146;2022-08-25T03:08:02;28.10;55.50
48734;DHT22;34530;52.084;5.146;2022-08-25T03:10:29;28.10;55.60
48734;DHT22;34530;52.084;5.146;2022-08-25T03:12:54;28.10;55.40
48734;DHT22;34530;52.084;5.146;2022-08-25T03:15:20;28.10;55.30
48734;DHT22;34530;52.084;5.146;2022-08-25T03:17:47;28.10;55.10
48734;DHT22;34530;52.084;5.146;2022-08-25T03:20:16;28.00;54.90
48734;DHT22;34530;52.084;5.146;2022-08-25T03:22:42;28.00;54.80
48734;DHT22;34530;52.084;5.146;2022-08-25T03:25:08;28.00;54.90
48734;DHT22;34530;52.084;5.146;2022-08-25T03:27:53;28.00;55.00
48734;DHT22;34530;52.084;5.146;2022-08-25T03:30:19;28.00;55.00
48734;DHT22;34530;52.084;5.146;2022-08-25T03:32:45;28.00;54.80
48734;DHT22;34530;52.084;5.146;2022-08-25T03:35:10;28.10;54.60
48734;DHT22;34530;52.084;5.146;2022-08-25T03:37:36;28.10;54.50
48734;DHT22;34530;52.084;5.146;2022-08-25T03:40:04;28.10;54.50
48734;DHT22;34530;52.084;5.146;2022-08-25T03:42:30;28.10;54.00
48734;DHT22;34530;52.084;5.146;2022-08-25T03:44:56;28.10;53.90
48734;DHT22;34530;52.084;5.146;2022-08-25T03:47:22;28.10;54.00
48734;DHT22;34530;52.084;5.146;2022-08-25T03:49:50;28.10;53.90
48734;DHT22;34530;52.084;5.146;2022-08-25T03:52:16;28.00;53.90
48734;DHT22;34530;52.084;5.146;2022-08-25T03:54:43;28.00;53.60
48734;DHT22;34530;52.084;5.146;2022-08-25T03:57:09;28.00;53.60
48734;DHT22;34530;52.084;5.146;2022-08-25T03:59:35;28.10;53.40
48734;DHT22;34530;52.084;5.146;2022-08-25T04:02:04;28.10;53.90
48734;DHT22;34530;52.084;5.146;2022-08-25T04:04:29;28.10;53.00
48734;DHT22;34530;52.084;5.146;2022-08-25T04:06:55;28.00;52.50
48734;DHT22;34530;52.084;5.146;2022-08-25T04:09:21;28.00;52.50
48734;DHT22;34530;52.084;5.146;2022-08-25T04:11:46;28.00;52.50
48734;DHT22;34530;52.084;5.146;2022-08-25T04:14:12;28.00;52.40
48734;DHT22;34530;52.084;5.146;2022-08-25T04:16:38;28.00;52.30
48734;DHT22;34530;52.084;5.146;2022-08-25T04:19:05;28.00;51.90
48734;DHT22;34530;52.084;5.146;2022-08-25T04:21:32;28.00;51.90
48734;DHT22;34530;52.084;5.146;2022-08-25T04:23:58;28.00;51.80
48734;DHT22;34530;52.084;5.146;2022-08-25T04:26:25;27.90;51.60
48734;DHT22;34530;52.084;5.146;2022-08-25T04:28:52;27.90;51.40
48734;DHT22;34530;52.084;5.146;2022-08-25T04:31:19;27.90;51.40
48734;DHT22;34530;52.084;5.146;2022-08-25T04:33:46;27.90;51.40
48734;DHT22;34530;52.084;5.146;2022-08-25T04:36:13;27.90;51.20
48734;DHT22;34530;52.084;5.146;2022-08-25T04:38:41;27.90;51.20
48734;DHT22;34530;52.084;5.146;2022-08-25T04:41:08;27.90;51.00
48734;DHT22;34530;52.084;5.146;2022-08-25T04:43:36;27.80;51.40
48734;DHT22;34530;52.084;5.146;2022-08-25T04:46:06;27.90;50.50
48734;DHT22;34530;52.084;5.146;2022-08-25T04:48:33;27.80;50.30
48734;DHT22;34530;52.084;5.146;2022-08-25T04:51:04;27.80;50.30
48734;DHT22;34530;52.084;5.146;2022-08-25T04:53:31;27.80;50.20
48734;DHT22;34530;52.084;5.146;2022-08-25T04:55:57;27.80;50.30
48734;DHT22;34530;52.084;5.146;2022-08-25T04:58:23;27.70;50.30
48734;DHT22;34530;52.084;5.146;2022-08-25T05:00:48;27.70;50.40
48734;DHT22;34530;52.084;5.146;2022-08-25T05:03:14;27.70;50.30
48734;DHT22;34530;52.084;5.146;2022-08-25T05:05:40;27.70;50.20
48734;DHT22;34530;52.084;5.146;2022-08-25T05:08:05;27.70;50.20
48734;DHT22;34530;52.084;5.146;2022-08-25T05:10:39;27.60;50.10
48734;DHT22;34530;52.084;5.146;2022-08-25T05:13:05;27.70;50.10
48734;DHT22;34530;52.084;5.146;2022-08-25T05:15:30;27.60;50.10
48734;DHT22;34530;52.084;5.146;2022-08-25T05:18:15;27.60;50.10
48734;DHT22;34530;52.084;5.146;2022-08-25T05:20:41;27.60;50.00
48734;DHT22;34530;52.084;5.146;2022-08-25T05:23:07;27.60;49.90
48734;DHT22;34530;52.084;5.146;2022-08-25T05:25:32;27.60;49.90
48734;DHT22;34530;52.084;5.146;2022-08-25T05:27:58;27.60;49.60
48734;DHT22;34530;52.084;5.146;2022-08-25T05:30:24;27.60;49.60
48734;DHT22;34530;52.084;5.146;2022-08-25T05:32:49;27.50;49.60
48734;DHT22;34530;52.084;5.146;2022-08-25T05:35:15;27.50;49.50
48734;DHT22;34530;52.084;5.146;2022-08-25T05:37:41;27.50;49.50
48734;DHT22;34530;52.084;5.146;2022-08-25T05:40:07;27.50;49.60
48734;DHT22;34530;52.084;5.146;2022-08-25T05:42:34;27.50;49.60
48734;DHT22;34530;52.084;5.146;2022-08-25T05:45:00;27.60;49.50
48734;DHT22;34530;52.084;5.146;2022-08-25T05:47:25;27.60;49.60
48734;DHT22;34530;52.084;5.146;2022-08-25T05:49:51;27.60;49.50
48734;DHT22;34530;52.084;5.146;2022-08-25T05:52:17;27.60;49.30
48734;DHT22;34530;52.084;5.146;2022-08-25T05:54:42;27.60;49.20
48734;DHT22;34530;52.084;5.146;2022-08-25T05:57:08;27.70;49.20
48734;DHT22;34530;52.084;5.146;2022-08-25T05:59:34;27.70;49.00
48734;DHT22;34530;52.084;5.146;2022-08-25T06:02:00;27.60;49.10
48734;DHT22;34530;52.084;5.146;2022-08-25T06:04:45;27.70;48.90
48734;DHT22;34530;52.084;5.146;2022-08-25T06:07:10;27.60;48.80
48734;DHT22;34530;52.084;5.146;2022-08-25T06:09:38;27.60;48.90
48734;DHT22;34530;52.084;5.146;2022-08-25T06:12:05;27.60;48.90
48734;DHT22;34530;52.084;5.146;2022-08-25T06:14:30;27.50;48.80
48734;DHT22;34530;52.084;5.146;2022-08-25T06:16:56;27.50;48.80
48734;DHT22;34530;52.084;5.146;2022-08-25T06:19:22;27.50;48.80
48734;DHT22;34530;52.084;5.146;2022-08-25T06:21:48;27.50;48.80
48734;DHT22;34530;52.084;5.146;2022-08-25T06:24:17;27.50;48.80
48734;DHT22;34530;52.084;5.146;2022-08-25T06:26:42;27.50;48.90
48734;DHT22;34530;52.084;5.146;2022-08-25T06:29:08;27.50;48.90
48734;DHT22;34530;52.084;5.146;2022-08-25T06:31:34;27.50;48.90
48734;DHT22;34530;52.084;5.146;2022-08-25T06:33:59;27.50;48.90
48734;DHT22;34530;52.084;5.146;2022-08-25T06:36:25;27.50;49.00
48734;DHT22;34530;52.084;5.146;2022-08-25T06:38:51;27.50;49.00
48734;DHT22;34530;52.084;5.146;2022-08-25T06:41:17;27.50;49.00
48734;DHT22;34530;52.084;5.146;2022-08-25T06:43:43;27.50;49.00
48734;DHT22;34530;52.084;5.146;2022-08-25T06:46:18;27.40;49.00
48734;DHT22;34530;52.084;5.146;2022-08-25T06:48:43;27.40;48.90
48734;DHT22;34530;52.084;5.146;2022-08-25T06:51:12;27.40;49.00
48734;DHT22;34530;52.084;5.146;2022-08-25T06:53:38;27.40;49.10
48734;DHT22;34530;52.084;5.146;2022-08-25T06:56:04;27.40;49.10
48734;DHT22;34530;52.084;5.146;2022-08-25T06:58:31;27.40;49.10
48734;DHT22;34530;52.084;5.146;2022-08-25T07:01:09;27.40;49.20
48734;DHT22;34530;52.084;5.146;2022-08-25T07:03:35;27.40;49.10
48734;DHT22;34530;52.084;5.146;2022-08-25T07:06:00;27.50;49.20
48734;DHT22;34530;52.084;5.146;2022-08-25T07:08:26;27.50;49.20
48734;DHT22;34530;52.084;5.146;2022-08-25T07:10:52;27.50;49.10
48734;DHT22;34530;52.084;5.146;2022-08-25T07:13:17;27.50;49.10
48734;DHT22;34530;52.084;5.146;2022-08-25T07:15:43;27.50;49.00
48734;DHT22;34530;52.084;5.146;2022-08-25T07:18:10;27.60;49.10
48734;DHT22;34530;52.084;5.146;2022-08-25T07:20:37;27.60;49.00
48734;DHT22;34530;52.084;5.146;2022-08-25T07:23:03;27.60;49.10
48734;DHT22;34530;52.084;5.146;2022-08-25T07:25:29;27.60;49.00
48734;DHT22;34530;52.084;5.146;2022-08-25T07:27:54;27.60;48.90
48734;DHT22;34530;52.084;5.146;2022-08-25T07:30:20;27.60;48.90
48734;DHT22;34530;52.084;5.146;2022-08-25T07:32:46;27.60;48.90
48734;DHT22;34530;52.084;5.146;2022-08-25T07:35:12;27.70;49.00
48734;DHT22;34530;52.084;5.146;2022-08-25T07:37:44;27.70;49.00
48734;DHT22;34530;52.084;5.146;2022-08-25T07:40:16;27.70;49.00
48734;DHT22;34530;52.084;5.146;2022-08-25T07:42:43;27.70;48.90
48734;DHT22;34530;52.084;5.146;2022-08-25T07:45:10;27.70;49.00
48734;DHT22;34530;52.084;5.146;2022-08-25T07:47:36;27.70;49.00
48734;DHT22;34530;52.084;5.146;2022-08-25T07:50:04;27.70;49.00
48734;DHT22;34530;52.084;5.146;2022-08-25T07:52:30;27.70;49.60
48734;DHT22;34530;52.084;5.146;2022-08-25T07:54:56;27.70;49.00
48734;DHT22;34530;52.084;5.146;2022-08-25T07:57:22;27.70;49.00
48734;DHT22;34530;52.084;5.146;2022-08-25T07:59:51;27.70;49.00
48734;DHT22;34530;52.084;5.146;2022-08-25T08:02:17;27.70;49.00
48734;DHT22;34530;52.084;5.146;2022-08-25T08:04:43;27.70;49.00
48734;DHT22;34530;52.084;5.146;2022-08-25T08:07:09;27.70;49.10
48734;DHT22;34530;52.084;5.146;2022-08-25T08:09:36;27.70;49.10
48734;DHT22;34530;52.084;5.146;2022-08-25T08:12:03;27.80;49.20
48734;DHT22;34530;52.084;5.146;2022-08-25T08:14:30;27.80;49.20
48734;DHT22;34530;52.084;5.146;2022-08-25T08:16:55;27.80;49.20
48734;DHT22;34530;52.084;5.146;2022-08-25T08:19:21;27.80;49.20
48734;DHT22;34530;52.084;5.146;2022-08-25T08:21:47;27.80;49.30
48734;DHT22;34530;52.084;5.146;2022-08-25T08:24:14;27.80;49.30
48734;DHT22;34530;52.084;5.146;2022-08-25T08:26:39;27.80;49.30
48734;DHT22;34530;52.084;5.146;2022-08-25T08:29:05;27.80;49.30
48734;DHT22;34530;52.084;5.146;2022-08-25T08:31:31;27.80;49.30
48734;DHT22;34530;52.084;5.146;2022-08-25T08:33:57;27.80;49.30
48734;DHT22;34530;52.084;5.146;2022-08-25T08:36:23;27.90;49.50
48734;DHT22;34530;52.084;5.146;2022-08-25T08:38:50;27.90;49.40
48734;DHT22;34530;52.084;5.146;2022-08-25T08:52:22;27.90;49.50
48734;DHT22;34530;52.084;5.146;2022-08-25T08:54:57;27.90;49.50
48734;DHT22;34530;52.084;5.146;2022-08-25T08:57:26;28.00;49.50
48734;DHT22;34530;52.084;5.146;2022-08-25T08:59:57;28.00;49.50
48734;DHT22;34530;52.084;5.146;2022-08-25T09:02:59;28.00;49.50
48734;DHT22;34530;52.084;5.146;2022-08-25T09:05:30;28.00;49.40
48734;DHT22;34530;52.084;5.146;2022-08-25T09:08:04;28.00;49.40
48734;DHT22;34530;52.084;5.146;2022-08-25T09:10:53;28.10;49.40
48734;DHT22;34530;52.084;5.146;2022-08-25T09:25:01;28.20;49.10
48734;DHT22;34530;52.084;5.146;2022-08-25T09:30:12;28.30;49.00
48734;DHT22;34530;52.084;5.146;2022-08-25T09:32:48;28.40;49.00
48734;DHT22;34530;52.084;5.146;2022-08-25T09:35:22;28.50;49.10
48734;DHT22;34530;52.084;5.146;2022-08-25T09:38:20;28.50;49.10
48734;DHT22;34530;52.084;5.146;2022-08-25T09:40:48;28.60;49.10
48734;DHT22;34530;52.084;5.146;2022-08-25T09:43:41;28.60;49.10
48734;DHT22;34530;52.084;5.146;2022-08-25T09:46:14;28.60;49.10
48734;DHT22;34530;52.084;5.146;2022-08-25T09:48:51;28.70;49.10
48734;DHT22;34530;52.084;5.146;2022-08-25T09:51:36;28.70;49.00
48734;DHT22;34530;52.084;5.146;2022-08-25T09:54:05;28.80;49.00
48734;DHT22;34530;52.084;5.146;2022-08-25T09:57:06;28.80;48.90
48734;DHT22;34530;52.084;5.146;2022-08-25T09:59:34;28.80;48.80
48734;DHT22;34530;52.084;5.146;2022-08-25T10:02:22;28.90;48.90
48734;DHT22;34530;52.084;5.146;2022-08-25T10:04:49;28.90;48.90
48734;DHT22;34530;52.084;5.146;2022-08-25T10:07:36;29.00;49.00
48734;DHT22;34530;52.084;5.146;2022-08-25T10:10:29;29.00;49.00
48734;DHT22;34530;52.084;5.146;2022-08-25T10:12:55;29.00;49.00
48734;DHT22;34530;52.084;5.146;2022-08-25T10:17:51;29.10;49.20
48734;DHT22;34530;52.084;5.146;2022-08-25T10:20:26;29.10;49.20
48734;DHT22;34530;52.084;5.146;2022-08-25T10:23:13;29.20;49.20
48734;DHT22;34530;52.084;5.146;2022-08-25T10:25:44;29.20;48.90
48734;DHT22;34530;52.084;5.146;2022-08-25T10:31:22;29.20;48.70
48734;DHT22;34530;52.084;5.146;2022-08-25T10:34:04;29.20;48.60
48734;DHT22;34530;52.084;5.146;2022-08-25T10:39:38;29.30;48.30
48734;DHT22;34530;52.084;5.146;2022-08-25T10:44:47;29.30;47.90
48734;DHT22;34530;52.084;5.146;2022-08-25T10:53:39;29.30;47.00
48734;DHT22;34530;52.084;5.146;2022-08-25T10:56:17;29.30;46.60
48734;DHT22;34530;52.084;5.146;2022-08-25T11:01:43;29.30;45.90
48734;DHT22;34530;52.084;5.146;2022-08-25T11:09:23;29.30;45.60
48734;DHT22;34530;52.084;5.146;2022-08-25T11:11:59;29.30;45.50
48734;DHT22;34530;52.084;5.146;2022-08-25T11:14:40;29.30;45.50
48734;DHT22;34530;52.084;5.146;2022-08-25T11:19:56;29.30;46.10
48734;DHT22;34530;52.084;5.146;2022-08-25T11:22:38;29.30;45.00
48734;DHT22;34530;52.084;5.146;2022-08-25T11:25:16;29.30;45.00
48734;DHT22;34530;52.084;5.146;2022-08-25T11:30:39;29.30;45.00
48734;DHT22;34530;52.084;5.146;2022-08-25T11:33:05;29.30;45.10
48734;DHT22;34530;52.084;5.146;2022-08-25T11:35:38;29.30;45.00
48734;DHT22;34530;52.084;5.146;2022-08-25T11:38:21;29.40;44.80
48734;DHT22;34530;52.084;5.146;2022-08-25T11:46:40;29.40;45.20
48734;DHT22;34530;52.084;5.146;2022-08-25T11:55:44;29.40;45.00
48734;DHT22;34530;52.084;5.146;2022-08-25T12:01:08;29.40;45.00
48734;DHT22;34530;52.084;5.146;2022-08-25T12:06:14;29.40;45.00
48734;DHT22;34530;52.084;5.146;2022-08-25T12:11:47;29.50;45.10
48734;DHT22;34530;52.084;5.146;2022-08-25T12:38:16;29.60;43.30
48734;DHT22;34530;52.084;5.146;2022-08-25T12:43:23;29.60;43.50
48734;DHT22;34530;52.084;5.146;2022-08-25T12:45:52;29.60;43.20
48734;DHT22;34530;52.084;5.146;2022-08-25T12:51:18;29.70;43.30
48734;DHT22;34530;52.084;5.146;2022-08-25T12:53:56;29.70;43.30
48734;DHT22;34530;52.084;5.146;2022-08-25T13:04:30;29.80;43.40
48734;DHT22;34530;52.084;5.146;2022-08-25T13:15:35;29.80;43.30
48734;DHT22;34530;52.084;5.146;2022-08-25T13:18:22;29.80;43.10
48734;DHT22;34530;52.084;5.146;2022-08-25T13:20:53;29.80;43.00
48734;DHT22;34530;52.084;5.146;2022-08-25T13:23:26;29.90;43.10
48734;DHT22;34530;52.084;5.146;2022-08-25T13:25:53;29.90;43.00
48734;DHT22;34530;52.084;5.146;2022-08-25T13:28:26;29.90;42.90
48734;DHT22;34530;52.084;5.146;2022-08-25T13:31:08;29.90;42.70
48734;DHT22;34530;52.084;5.146;2022-08-25T13:33:52;29.90;42.80
48734;DHT22;34530;52.084;5.146;2022-08-25T13:36:19;29.90;43.30
48734;DHT22;34530;52.084;5.146;2022-08-25T13:39:14;29.90;42.60
48734;DHT22;34530;52.084;5.146;2022-08-25T13:41:49;29.90;42.40
48734;DHT22;34530;52.084;5.146;2022-08-25T13:44:17;30.00;42.50
48734;DHT22;34530;52.084;5.146;2022-08-25T13:46:43;29.90;42.20
48734;DHT22;34530;52.084;5.146;2022-08-25T13:49:10;30.00;42.40
48734;DHT22;34530;52.084;5.146;2022-08-25T13:51:37;30.00;42.60
48734;DHT22;34530;52.084;5.146;2022-08-25T13:54:06;30.00;42.60
48734;DHT22;34530;52.084;5.146;2022-08-25T13:56:35;30.00;42.80
48734;DHT22;34530;52.084;5.146;2022-08-25T13:59:04;30.00;42.90
48734;DHT22;34530;52.084;5.146;2022-08-25T14:01:42;30.00;43.10
48734;DHT22;34530;52.084;5.146;2022-08-25T14:04:29;30.10;43.10
48734;DHT22;34530;52.084;5.146;2022-08-25T14:09:53;30.10;42.70
48734;DHT22;34530;52.084;5.146;2022-08-25T14:12:34;30.10;42.90
48734;DHT22;34530;52.084;5.146;2022-08-25T14:17:36;30.10;43.10
48734;DHT22;34530;52.084;5.146;2022-08-25T14:20:04;30.10;43.20
48734;DHT22;34530;52.084;5.146;2022-08-25T14:22:31;30.20;43.10
48734;DHT22;34530;52.084;5.146;2022-08-25T14:24:56;30.20;42.90
48734;DHT22;34530;52.084;5.146;2022-08-25T14:27:22;30.20;42.70
48734;DHT22;34530;52.084;5.146;2022-08-25T14:29:48;30.20;42.70
48734;DHT22;34530;52.084;5.146;2022-08-25T14:32:15;30.20;42.30
48734;DHT22;34530;52.084;5.146;2022-08-25T14:34:41;30.20;42.20
48734;DHT22;34530;52.084;5.146;2022-08-25T14:37:18;30.20;42.10
48734;DHT22;34530;52.084;5.146;2022-08-25T14:39:44;30.30;42.10
48734;DHT22;34530;52.084;5.146;2022-08-25T14:42:11;30.30;42.00
48734;DHT22;34530;52.084;5.146;2022-08-25T14:44:37;30.30;42.20
48734;DHT22;34530;52.084;5.146;2022-08-25T14:47:04;30.30;42.00
48734;DHT22;34530;52.084;5.146;2022-08-25T14:49:34;30.30;41.70
48734;DHT22;34530;52.084;5.146;2022-08-25T14:52:07;30.30;41.60
48734;DHT22;34530;52.084;5.146;2022-08-25T14:54:33;30.40;41.60
48734;DHT22;34530;52.084;5.146;2022-08-25T14:56:59;30.40;41.60
48734;DHT22;34530;52.084;5.146;2022-08-25T14:59:25;30.40;42.00
48734;DHT22;34530;52.084;5.146;2022-08-25T15:01:51;30.40;42.10
48734;DHT22;34530;52.084;5.146;2022-08-25T15:04:23;30.40;42.30
48734;DHT22;34530;52.084;5.146;2022-08-25T15:06:56;30.40;42.40
48734;DHT22;34530;52.084;5.146;2022-08-25T15:09:22;30.40;42.60
48734;DHT22;34530;52.084;5.146;2022-08-25T15:11:51;30.40;42.80
48734;DHT22;34530;52.084;5.146;2022-08-25T15:14:19;30.40;42.70
48734;DHT22;34530;52.084;5.146;2022-08-25T15:16:54;30.50;42.90
48734;DHT22;34530;52.084;5.146;2022-08-25T15:19:22;30.50;42.90
48734;DHT22;34530;52.084;5.146;2022-08-25T15:21:49;30.50;42.70
48734;DHT22;34530;52.084;5.146;2022-08-25T15:24:16;30.50;42.50
48734;DHT22;34530;52.084;5.146;2022-08-25T15:29:09;30.50;42.50
48734;DHT22;34530;52.084;5.146;2022-08-25T15:31:35;30.50;42.60
48734;DHT22;34530;52.084;5.146;2022-08-25T15:34:01;30.50;42.60
48734;DHT22;34530;52.084;5.146;2022-08-25T15:36:27;30.60;42.60
48734;DHT22;34530;52.084;5.146;2022-08-25T15:38:52;30.60;42.50
48734;DHT22;34530;52.084;5.146;2022-08-25T15:41:19;30.60;42.40
48734;DHT22;34530;52.084;5.146;2022-08-25T15:43:45;30.60;42.30
48734;DHT22;34530;52.084;5.146;2022-08-25T15:46:13;30.60;42.50
48734;DHT22;34530;52.084;5.146;2022-08-25T15:48:40;30.60;42.60
48734;DHT22;34530;52.084;5.146;2022-08-25T15:51:06;30.70;42.80
48734;DHT22;34530;52.084;5.146;2022-08-25T15:53:33;30.60;42.90
48734;DHT22;34530;52.084;5.146;2022-08-25T15:55:59;30.60;43.00
48734;DHT22;34530;52.084;5.146;2022-08-25T15:58:26;30.60;43.10
48734;DHT22;34530;52.084;5.146;2022-08-25T16:00:51;30.60;43.10
48734;DHT22;34530;52.084;5.146;2022-08-25T16:03:17;30.70;43.20
48734;DHT22;34530;52.084;5.146;2022-08-25T16:05:43;30.70;43.30
48734;DHT22;34530;52.084;5.146;2022-08-25T16:08:10;30.70;43.30
48734;DHT22;34530;52.084;5.146;2022-08-25T16:10:38;30.70;43.30
48734;DHT22;34530;52.084;5.146;2022-08-25T16:13:05;30.70;43.40
48734;DHT22;34530;52.084;5.146;2022-08-25T16:15:32;30.70;43.50
48734;DHT22;34530;52.084;5.146;2022-08-25T16:17:58;30.70;43.60
48734;DHT22;34530;52.084;5.146;2022-08-25T16:20:25;30.80;43.70
48734;DHT22;34530;52.084;5.146;2022-08-25T16:22:51;30.80;43.80
48734;DHT22;34530;52.084;5.146;2022-08-25T16:25:17;30.80;43.90
48734;DHT22;34530;52.084;5.146;2022-08-25T16:27:42;30.80;43.90
48734;DHT22;34530;52.084;5.146;2022-08-25T16:30:10;30.80;44.10
48734;DHT22;34530;52.084;5.146;2022-08-25T16:32:36;30.80;44.10
48734;DHT22;34530;52.084;5.146;2022-08-25T16:35:03;30.80;44.30
48734;DHT22;34530;52.084;5.146;2022-08-25T16:37:30;30.80;44.40
48734;DHT22;34530;52.084;5.146;2022-08-25T16:39:56;30.80;44.60
48734;DHT22;34530;52.084;5.146;2022-08-25T16:42:21;30.80;44.70
48734;DHT22;34530;52.084;5.146;2022-08-25T16:44:47;30.80;44.90
48734;DHT22;34530;52.084;5.146;2022-08-25T16:47:13;30.90;45.20
48734;DHT22;34530;52.084;5.146;2022-08-25T16:49:39;30.80;45.40
48734;DHT22;34530;52.084;5.146;2022-08-25T16:52:06;30.90;45.80
48734;DHT22;34530;52.084;5.146;2022-08-25T16:54:52;30.90;46.00
48734;DHT22;34530;52.084;5.146;2022-08-25T16:57:36;30.90;46.30
48734;DHT22;34530;52.084;5.146;2022-08-25T17:00:04;30.90;46.60
48734;DHT22;34530;52.084;5.146;2022-08-25T17:02:30;30.90;46.90
48734;DHT22;34530;52.084;5.146;2022-08-25T17:04:56;30.90;47.10
48734;DHT22;34530;52.084;5.146;2022-08-25T17:07:21;30.90;47.30
48734;DHT22;34530;52.084;5.146;2022-08-25T17:09:47;30.90;47.50
48734;DHT22;34530;52.084;5.146;2022-08-25T17:12:12;30.90;47.60
48734;DHT22;34530;52.084;5.146;2022-08-25T17:14:39;30.90;47.80
48734;DHT22;34530;52.084;5.146;2022-08-25T17:17:04;30.90;47.90
48734;DHT22;34530;52.084;5.146;2022-08-25T17:19:30;31.00;48.10
48734;DHT22;34530;52.084;5.146;2022-08-25T17:21:56;31.00;48.20
48734;DHT22;34530;52.084;5.146;2022-08-25T17:24:22;31.00;48.30
48734;DHT22;34530;52.084;5.146;2022-08-25T17:26:49;31.00;49.10
48734;DHT22;34530;52.084;5.146;2022-08-25T17:29:16;31.00;48.50
48734;DHT22;34530;52.084;5.146;2022-08-25T17:31:42;31.00;48.50
48734;DHT22;34530;52.084;5.146;2022-08-25T17:34:10;31.00;48.50
48734;DHT22;34530;52.084;5.146;2022-08-25T17:36:38;31.00;48.60
48734;DHT22;34530;52.084;5.146;2022-08-25T17:39:04;31.00;48.60
48734;DHT22;34530;52.084;5.146;2022-08-25T17:41:30;31.10;48.70
48734;DHT22;34530;52.084;5.146;2022-08-25T17:43:56;31.10;48.80
48734;DHT22;34530;52.084;5.146;2022-08-25T17:46:21;31.10;49.10
48734;DHT22;34530;52.084;5.146;2022-08-25T17:48:48;31.10;49.30
48734;DHT22;34530;52.084;5.146;2022-08-25T17:51:13;31.10;49.50
48734;DHT22;34530;52.084;5.146;2022-08-25T17:53:39;31.10;49.30
48734;DHT22;34530;52.084;5.146;2022-08-25T17:56:08;31.10;49.40